Terminal Aerodrome Forecast
Issued by NWS

Home | Current Version | Previous Version | Text Only | Print | Product List | Glossary On
Versions: 1 2 3 4 5 6 7 8 9 10 11 12 13 14 15
000
FTUS43 KIWX 212300
TAFSBN
TAF
KSBN 212320Z 2200/2224 13008KT P6SM BKN250
     FM221500 13008KT P6SM BKN080
     FM222000 12010KT 3SM -RA BR OVC015=

USA.gov is the U.S. government's official web portal to all federal, state and local government web resources and services.